Time;durP1;ratioP1;P1;durP2;ratioP2;P2;SDS_P1;SDS_P2;PMS_P1;PMS_P2;Temp;Humidity;BMP_temperature;BMP_pressure;BME280_temperature;BME280_humidity;BME280_pressure;Samples;Min_cycle;Max_cycle;Signal;HPM_P1;HPM_P2
2022/05/26 00:01:11;;;;;;;6.57;4.18;;;;;;;;;;5037504;28;20181;-64
2022/05/26 00:03:39;;;;;;;8.82;4.35;;;;;;;;;;5043133;28;20224;-64
2022/05/26 00:06:07;;;;;;;11.45;4.47;;;;;;;;;;5042594;28;20185;-64
2022/05/26 00:08:33;;;;;;;8.73;4.57;;;;;;;;;;5031383;28;20708;-64
2022/05/26 00:10:59;;;;;;;8.13;4.47;;;;;;;;;;5032659;28;20228;-64
2022/05/26 00:13:25;;;;;;;8.38;4.40;;;;;;;;;;5043407;28;20185;-64
2022/05/26 00:15:51;;;;;;;8.90;5.05;;;;;;;;;;5035881;28;20629;-64
2022/05/26 00:18:16;;;;;;;9.57;5.13;;;;;;;;;;5041959;28;20617;-67
2022/05/26 00:20:42;;;;;;;13.00;5.80;;;;;;;;;;5043544;28;20177;-63
2022/05/26 00:23:07;;;;;;;12.00;5.65;;;;;;;;;;5050431;28;20247;-66
2022/05/26 00:25:32;;;;;;;13.38;5.90;;;;;;;;;;5036593;28;20186;-65
2022/05/26 00:27:58;;;;;;;9.07;6.15;;;;;;;;;;5037647;28;20188;-64
2022/05/26 00:30:23;;;;;;;12.07;6.50;;;;;;;;;;5029802;28;20281;-65
2022/05/26 00:32:49;;;;;;;10.90;5.88;;;;;;;;;;5041852;28;20181;-64
2022/05/26 00:35:15;;;;;;;10.10;7.22;;;;;;;;;;5032050;28;20174;-64
2022/05/26 00:37:41;;;;;;;12.30;6.47;;;;;;;;;;5042030;28;20561;-63
2022/05/26 00:40:08;;;;;;;14.98;7.25;;;;;;;;;;5046680;28;20664;-64
2022/05/26 00:42:34;;;;;;;13.93;7.30;;;;;;;;;;5034810;28;20296;-66
2022/05/26 00:44:59;;;;;;;14.35;7.47;;;;;;;;;;5043885;28;20264;-66
2022/05/26 00:47:28;;;;;;;13.80;7.45;;;;;;;;;;5033569;28;20265;-65
2022/05/26 00:50:01;;;;;;;14.60;7.55;;;;;;;;;;5034917;28;20216;-66
2022/05/26 00:52:37;;;;;;;12.73;7.82;;;;;;;;;;5033744;28;20201;-64
2022/05/26 00:55:07;;;;;;;15.32;8.43;;;;;;;;;;5038728;28;20217;-64
2022/05/26 00:57:38;;;;;;;10.65;7.80;;;;;;;;;;5033492;28;20668;-64
2022/05/26 01:00:19;;;;;;;11.75;8.30;;;;;;;;;;5039545;28;20182;-64
2022/05/26 01:03:01;;;;;;;12.80;7.97;;;;;;;;;;5034963;28;20193;-65
2022/05/26 01:05:32;;;;;;;14.48;8.38;;;;;;;;;;5041155;28;20721;-64
2022/05/26 01:07:58;;;;;;;10.18;7.03;;;;;;;;;;5038433;28;20336;-64
2022/05/26 01:10:24;;;;;;;15.32;8.23;;;;;;;;;;5048999;28;20205;-64
2022/05/26 01:12:49;;;;;;;9.77;7.50;;;;;;;;;;5036290;28;20233;-63
2022/05/26 01:15:19;;;;;;;11.10;7.90;;;;;;;;;;5050329;28;20230;-64
2022/05/26 01:18:10;;;;;;;15.52;8.85;;;;;;;;;;5039016;28;20194;-64
2022/05/26 01:21:17;;;;;;;16.50;7.95;;;;;;;;;;5031656;28;20182;-64
2022/05/26 01:24:06;;;;;;;14.80;7.93;;;;;;;;;;5030061;28;20239;-63
2022/05/26 01:26:55;;;;;;;14.40;7.57;;;;;;;;;;5043839;28;20213;-66
2022/05/26 01:30:02;;;;;;;14.02;8.32;;;;;;;;;;5033227;28;20182;-65
2022/05/26 01:32:36;;;;;;;16.75;8.13;;;;;;;;;;5039620;28;21405;-66
2022/05/26 01:35:20;;;;;;;14.65;8.48;;;;;;;;;;5041644;28;20295;-64
2022/05/26 01:38:03;;;;;;;12.32;8.75;;;;;;;;;;5030299;28;20174;-64
2022/05/26 01:40:31;;;;;;;15.98;9.13;;;;;;;;;;5029124;28;20206;-65
2022/05/26 01:43:33;;;;;;;16.45;9.50;;;;;;;;;;5039696;28;20186;-64
2022/05/26 01:46:13;;;;;;;12.05;8.18;;;;;;;;;;5048018;28;20181;-64
2022/05/26 01:49:02;;;;;;;12.43;8.73;;;;;;;;;;5041014;28;20606;-64
2022/05/26 01:51:33;;;;;;;15.18;8.88;;;;;;;;;;5042324;28;20206;-64
2022/05/26 01:54:05;;;;;;;15.88;8.85;;;;;;;;;;5030970;28;20186;-65
2022/05/26 01:56:38;;;;;;;16.42;9.25;;;;;;;;;;5028808;28;20190;-63
2022/05/26 01:59:18;;;;;;;15.00;9.73;;;;;;;;;;5042947;28;20173;-63
2022/05/26 02:01:52;;;;;;;15.48;8.68;;;;;;;;;;5036208;28;20552;-63
2022/05/26 02:04:34;;;;;;;18.48;10.02;;;;;;;;;;5038438;28;20247;-64
2022/05/26 02:07:31;;;;;;;19.52;10.10;;;;;;;;;;5037304;28;20613;-64
2022/05/26 02:10:03;;;;;;;14.32;9.88;;;;;;;;;;5033222;28;20275;-64
2022/05/26 02:12:40;;;;;;;18.40;9.98;;;;;;;;;;5028428;28;20218;-65
2022/05/26 02:15:19;;;;;;;23.58;11.20;;;;;;;;;;5032037;28;20192;-63
2022/05/26 02:17:50;;;;;;;18.58;10.23;;;;;;;;;;5033488;28;20523;-64
2022/05/26 02:20:26;;;;;;;19.27;9.90;;;;;;;;;;5045018;28;20304;-65
2022/05/26 02:23:03;;;;;;;21.83;10.90;;;;;;;;;;5029719;28;20544;-64
2022/05/26 02:25:29;;;;;;;17.92;10.25;;;;;;;;;;5046412;28;20633;-65
2022/05/26 02:27:57;;;;;;;16.80;10.63;;;;;;;;;;5031878;28;20276;-64
2022/05/26 02:30:36;;;;;;;22.00;11.43;;;;;;;;;;5045660;28;20202;-64
2022/05/26 02:33:04;;;;;;;19.27;10.13;;;;;;;;;;5027313;28;20190;-63
2022/05/26 02:35:33;;;;;;;19.67;10.95;;;;;;;;;;5031880;28;20220;-64
2022/05/26 02:38:03;;;;;;;26.25;11.00;;;;;;;;;;5048502;28;20184;-64
2022/05/26 02:40:29;;;;;;;16.92;10.93;;;;;;;;;;5032394;28;20178;-64
2022/05/26 02:42:58;;;;;;;23.40;10.85;;;;;;;;;;5042169;28;20194;-65
2022/05/26 02:45:55;;;;;;;20.10;11.18;;;;;;;;;;5027917;28;20170;-64
2022/05/26 02:48:44;;;;;;;23.52;11.57;;;;;;;;;;5040220;28;20530;-64
2022/05/26 02:51:34;;;;;;;24.83;12.32;;;;;;;;;;5034946;28;20673;-64
2022/05/26 02:54:22;;;;;;;20.98;12.43;;;;;;;;;;5031857;28;20260;-65
2022/05/26 02:57:05;;;;;;;25.92;12.07;;;;;;;;;;5040299;28;20189;-64
2022/05/26 03:00:06;;;;;;;20.83;11.90;;;;;;;;;;5031837;28;20316;-64
2022/05/26 03:02:39;;;;;;;21.65;12.05;;;;;;;;;;5032782;28;20194;-64
2022/05/26 03:05:23;;;;;;;24.83;12.18;;;;;;;;;;5039130;28;20632;-64
2022/05/26 03:07:52;;;;;;;28.88;13.43;;;;;;;;;;5034028;28;20181;-64
2022/05/26 03:10:21;;;;;;;23.63;12.57;;;;;;;;;;5037102;28;20622;-65
2022/05/26 03:12:46;;;;;;;27.02;12.63;;;;;;;;;;5040118;28;20226;-65
2022/05/26 03:15:12;;;;;;;27.25;13.05;;;;;;;;;;5029081;28;20646;-64
2022/05/26 03:17:37;;;;;;;23.60;12.27;;;;;;;;;;5042162;28;20608;-64
2022/05/26 03:20:04;;;;;;;28.33;12.20;;;;;;;;;;5036087;28;20587;-66
2022/05/26 03:22:29;;;;;;;25.40;13.02;;;;;;;;;;5033356;28;20216;-64
2022/05/26 03:24:54;;;;;;;24.80;13.02;;;;;;;;;;5037321;28;20245;-64
2022/05/26 03:27:20;;;;;;;31.92;13.73;;;;;;;;;;5028564;28;20186;-64
2022/05/26 03:29:46;;;;;;;26.50;13.10;;;;;;;;;;5038163;28;20205;-65
2022/05/26 03:32:11;;;;;;;25.00;12.75;;;;;;;;;;5034460;28;20741;-64
2022/05/26 03:42:49;;;;;;;24.30;13.15;;;;;;;;;;5038421;28;20178;-64
2022/05/26 03:45:19;;;;;;;26.75;12.48;;;;;;;;;;5028211;28;20557;-64
2022/05/26 03:47:44;;;;;;;28.75;13.13;;;;;;;;;;5036499;28;20216;-64
2022/05/26 03:50:09;;;;;;;25.27;12.30;;;;;;;;;;5048279;28;20229;-64
2022/05/26 03:52:35;;;;;;;22.63;11.95;;;;;;;;;;5040649;28;20186;-65
2022/05/26 03:55:00;;;;;;;28.48;12.27;;;;;;;;;;5031461;28;20189;-64
2022/05/26 03:57:29;;;;;;;20.83;11.32;;;;;;;;;;5038355;28;20182;-65
2022/05/26 03:59:54;;;;;;;21.48;11.05;;;;;;;;;;5027760;28;20182;-64
2022/05/26 04:02:20;;;;;;;23.83;11.10;;;;;;;;;;5029933;28;20566;-64
2022/05/26 04:04:45;;;;;;;23.02;10.35;;;;;;;;;;5036257;28;20239;-64
2022/05/26 04:07:14;;;;;;;25.48;11.25;;;;;;;;;;5028227;28;20186;-66
2022/05/26 04:09:40;;;;;;;23.77;10.32;;;;;;;;;;5034679;28;20228;-65
2022/05/26 04:12:08;;;;;;;24.98;10.60;;;;;;;;;;5037970;28;20226;-63
2022/05/26 04:14:34;;;;;;;22.75;9.98;;;;;;;;;;5037470;28;20232;-63
2022/05/26 04:17:00;;;;;;;27.02;10.68;;;;;;;;;;5045946;28;20181;-64
2022/05/26 04:19:25;;;;;;;26.73;10.43;;;;;;;;;;5034694;28;20697;-64
2022/05/26 04:24:35;;;;;;;24.85;11.05;;;;;;;;;;5031584;28;20562;-63
2022/05/26 04:27:00;;;;;;;22.00;10.98;;;;;;;;;;5039698;28;20174;-64
2022/05/26 04:29:27;;;;;;;25.55;11.20;;;;;;;;;;5037024;28;20188;-65
2022/05/26 04:31:52;;;;;;;22.20;11.05;;;;;;;;;;5042331;28;20205;-65
2022/05/26 04:34:18;;;;;;;24.30;10.80;;;;;;;;;;5045613;28;20180;-64
2022/05/26 04:36:44;;;;;;;25.95;11.43;;;;;;;;;;5043283;28;20558;-65
2022/05/26 04:39:09;;;;;;;25.27;12.13;;;;;;;;;;5035137;28;20260;-64
2022/05/26 04:41:34;;;;;;;23.30;11.40;;;;;;;;;;5038930;28;20535;-64
2022/05/26 04:44:00;;;;;;;24.00;12.27;;;;;;;;;;5038140;28;20189;-64
2022/05/26 04:46:25;;;;;;;23.98;11.60;;;;;;;;;;5039621;28;20186;-65
2022/05/26 04:48:50;;;;;;;28.27;12.25;;;;;;;;;;5042513;28;20182;-64
2022/05/26 04:51:16;;;;;;;30.38;11.05;;;;;;;;;;5037443;28;20278;-65
2022/05/26 04:53:41;;;;;;;25.55;11.75;;;;;;;;;;5029846;28;20190;-64
2022/05/26 04:56:06;;;;;;;25.77;10.93;;;;;;;;;;5039497;28;20289;-65
2022/05/26 04:58:32;;;;;;;19.00;10.52;;;;;;;;;;5035015;28;20668;-67
2022/05/26 05:00:57;;;;;;;25.40;11.25;;;;;;;;;;5031112;28;20178;-65
2022/05/26 05:03:22;;;;;;;25.08;9.48;;;;;;;;;;5037830;28;20268;-65
2022/05/26 05:05:48;;;;;;;22.35;9.15;;;;;;;;;;5025917;28;20193;-65
2022/05/26 05:08:14;;;;;;;23.23;9.75;;;;;;;;;;5029828;28;20514;-65
2022/05/26 05:10:39;;;;;;;26.85;10.50;;;;;;;;;;5031251;28;20664;-64
2022/05/26 05:13:05;;;;;;;26.55;9.35;;;;;;;;;;5037593;28;20277;-64
2022/05/26 05:15:46;;;;;;;21.13;8.50;;;;;;;;;;5041110;28;20212;-64
2022/05/26 05:18:11;;;;;;;23.80;9.25;;;;;;;;;;5031971;28;20269;-65
2022/05/26 05:20:38;;;;;;;24.48;8.75;;;;;;;;;;5030215;28;20737;-64
2022/05/26 05:23:08;;;;;;;25.73;8.82;;;;;;;;;;5035576;28;20185;-64
2022/05/26 05:25:38;;;;;;;20.77;8.45;;;;;;;;;;5047416;28;20835;-64
2022/05/26 05:28:10;;;;;;;21.67;8.48;;;;;;;;;;5047467;28;20182;-65
2022/05/26 05:30:46;;;;;;;21.05;8.13;;;;;;;;;;5037119;28;20581;-65
2022/05/26 05:33:16;;;;;;;25.65;8.40;;;;;;;;;;5046465;28;20177;-64
2022/05/26 05:36:05;;;;;;;20.58;7.70;;;;;;;;;;5048925;28;20185;-65
2022/05/26 05:38:33;;;;;;;21.73;7.85;;;;;;;;;;5045532;28;20197;-65
2022/05/26 05:41:00;;;;;;;25.48;7.03;;;;;;;;;;5039067;28;20654;-64
2022/05/26 05:43:26;;;;;;;21.90;7.47;;;;;;;;;;5040235;28;20192;-64
2022/05/26 05:45:51;;;;;;;27.33;7.13;;;;;;;;;;5036194;28;20190;-66
2022/05/26 05:48:16;;;;;;;22.35;7.57;;;;;;;;;;5041026;28;20551;-66
2022/05/26 05:50:42;;;;;;;25.52;7.13;;;;;;;;;;5035709;28;20209;-64
2022/05/26 05:53:09;;;;;;;20.10;6.20;;;;;;;;;;5039825;28;20252;-64
2022/05/26 05:55:34;;;;;;;19.60;6.18;;;;;;;;;;5041233;28;20185;-66
2022/05/26 05:57:59;;;;;;;21.05;5.88;;;;;;;;;;5048824;28;20609;-65
2022/05/26 06:00:25;;;;;;;19.70;5.35;;;;;;;;;;5033036;28;20440;-65
2022/05/26 06:02:50;;;;;;;20.65;5.50;;;;;;;;;;5037293;28;20182;-64
2022/05/26 06:05:16;;;;;;;20.33;6.15;;;;;;;;;;5040189;28;20179;-65
2022/05/26 06:07:41;;;;;;;14.68;4.75;;;;;;;;;;5031740;28;20185;-65
2022/05/26 06:10:12;;;;;;;14.50;4.80;;;;;;;;;;5036888;28;20206;-64
2022/05/26 06:12:38;;;;;;;16.10;5.05;;;;;;;;;;5033699;28;20251;-65
2022/05/26 06:15:05;;;;;;;14.50;4.72;;;;;;;;;;5042853;28;20662;-65
2022/05/26 06:17:30;;;;;;;17.88;4.63;;;;;;;;;;5041214;28;20185;-65
2022/05/26 06:19:55;;;;;;;16.17;4.32;;;;;;;;;;5041204;28;20196;-65
2022/05/26 06:22:22;;;;;;;18.95;4.28;;;;;;;;;;5042027;28;20181;-65
2022/05/26 06:24:48;;;;;;;18.30;4.13;;;;;;;;;;5042166;28;20190;-65
2022/05/26 06:30:15;;;;;;;13.52;3.20;;;;;;;;;;5040866;28;20803;-66
2022/05/26 06:38:23;;;;;;;15.15;3.58;;;;;;;;;;5041873;28;20254;-65
2022/05/26 06:40:49;;;;;;;16.88;3.67;;;;;;;;;;5036350;28;20193;-66
2022/05/26 06:43:15;;;;;;;19.13;4.00;;;;;;;;;;5037380;28;20178;-65
2022/05/26 06:45:42;;;;;;;13.30;3.65;;;;;;;;;;5041497;28;20186;-65
2022/05/26 06:48:08;;;;;;;16.30;4.03;;;;;;;;;;5045523;28;20231;-65
2022/05/26 06:50:34;;;;;;;13.82;3.40;;;;;;;;;;5032357;28;20241;-66
2022/05/26 06:52:59;;;;;;;14.57;3.00;;;;;;;;;;5033480;28;20213;-64
2022/05/26 06:55:24;;;;;;;16.60;3.55;;;;;;;;;;5045810;28;20517;-64
2022/05/26 06:57:50;;;;;;;13.98;2.95;;;;;;;;;;5035813;28;20190;-65
2022/05/26 07:00:16;;;;;;;8.93;2.50;;;;;;;;;;5028851;28;20177;-64
2022/05/26 07:02:42;;;;;;;13.00;2.95;;;;;;;;;;5039280;28;20270;-65
2022/05/26 07:05:08;;;;;;;15.02;3.45;;;;;;;;;;5033748;28;20272;-67
2022/05/26 07:07:35;;;;;;;16.17;2.97;;;;;;;;;;5040884;28;20181;-66
2022/05/26 07:10:02;;;;;;;10.13;2.88;;;;;;;;;;5038470;28;20238;-66
2022/05/26 07:12:27;;;;;;;11.15;2.65;;;;;;;;;;5032185;28;20257;-67
2022/05/26 07:14:54;;;;;;;10.75;2.80;;;;;;;;;;5033957;28;20846;-66
2022/05/26 07:17:19;;;;;;;9.82;2.58;;;;;;;;;;5043500;28;20230;-66
2022/05/26 07:19:45;;;;;;;13.77;2.28;;;;;;;;;;5028237;28;20598;-65
2022/05/26 07:22:10;;;;;;;10.38;2.22;;;;;;;;;;5031998;28;20181;-65
2022/05/26 07:24:36;;;;;;;9.40;2.65;;;;;;;;;;5035217;28;20235;-65
2022/05/26 07:27:02;;;;;;;11.30;2.28;;;;;;;;;;5026518;28;20189;-66
2022/05/26 07:29:28;;;;;;;8.85;3.00;;;;;;;;;;5026559;28;20276;-66
2022/05/26 07:31:54;;;;;;;11.85;2.40;;;;;;;;;;5032690;28;20768;-66
2022/05/26 07:34:20;;;;;;;9.55;2.28;;;;;;;;;;5031353;28;20231;-65
2022/05/26 07:42:17;;;;;;;11.68;2.40;;;;;;;;;;5040642;28;20326;-65
2022/05/26 07:44:46;;;;;;;11.93;1.92;;;;;;;;;;5036497;28;20231;-65
2022/05/26 07:47:11;;;;;;;10.60;3.20;;;;;;;;;;5032267;28;20533;-67
2022/05/26 07:49:42;;;;;;;11.88;2.47;;;;;;;;;;5036496;28;20254;-66
2022/05/26 07:52:09;;;;;;;9.45;2.70;;;;;;;;;;5040071;28;20192;-65
2022/05/26 07:54:35;;;;;;;10.50;2.30;;;;;;;;;;5033716;28;20721;-65
2022/05/26 07:57:01;;;;;;;10.23;2.03;;;;;;;;;;5036887;28;20227;-65
2022/05/26 07:59:28;;;;;;;6.22;1.73;;;;;;;;;;5037861;28;20205;-66
2022/05/26 08:01:53;;;;;;;7.93;1.70;;;;;;;;;;5035105;28;20181;-66
2022/05/26 08:04:19;;;;;;;10.23;2.08;;;;;;;;;;5032775;28;20668;-66
2022/05/26 08:06:46;;;;;;;8.77;2.20;;;;;;;;;;5035544;28;20279;-67
2022/05/26 08:09:14;;;;;;;8.73;1.92;;;;;;;;;;5042587;28;20692;-65
2022/05/26 08:11:40;;;;;;;5.43;1.48;;;;;;;;;;5037364;28;20232;-68
2022/05/26 08:14:05;;;;;;;9.48;1.52;;;;;;;;;;5042122;28;20181;-66
2022/05/26 08:16:31;;;;;;;6.55;1.17;;;;;;;;;;5040213;28;20264;-66
2022/05/26 08:18:57;;;;;;;7.70;1.73;;;;;;;;;;5037361;28;20178;-68
2022/05/26 08:21:22;;;;;;;7.45;1.23;;;;;;;;;;5027987;28;20260;-66
2022/05/26 08:23:48;;;;;;;4.80;1.42;;;;;;;;;;5037766;28;20264;-67
2022/05/26 08:26:14;;;;;;;6.70;1.30;;;;;;;;;;5032593;28;20738;-68
2022/05/26 08:28:40;;;;;;;6.00;1.40;;;;;;;;;;5029473;28;20638;-68
2022/05/26 08:31:05;;;;;;;5.18;0.95;;;;;;;;;;5040330;28;20469;-67
2022/05/26 08:33:30;;;;;;;5.20;1.23;;;;;;;;;;5039514;28;20298;-66
2022/05/26 08:36:24;;;;;;;5.50;1.00;;;;;;;;;;5039779;28;20181;-65
2022/05/26 08:38:50;;;;;;;4.80;1.52;;;;;;;;;;5032585;28;20200;-67
2022/05/26 08:41:26;;;;;;;3.97;1.23;;;;;;;;;;5033859;28;20233;-66
2022/05/26 08:44:05;;;;;;;4.65;1.00;;;;;;;;;;5046203;28;20194;-66
2022/05/26 08:46:47;;;;;;;5.30;0.90;;;;;;;;;;5044089;28;20190;-65
2022/05/26 08:49:24;;;;;;;4.78;0.90;;;;;;;;;;5041836;28;20177;-66
2022/05/26 08:51:56;;;;;;;6.57;1.10;;;;;;;;;;5049276;28;20243;-67
2022/05/26 08:54:31;;;;;;;7.57;1.23;;;;;;;;;;5042520;28;20834;-66
2022/05/26 08:57:00;;;;;;;5.22;0.95;;;;;;;;;;5032713;28;20185;-66
2022/05/26 08:59:35;;;;;;;6.43;1.40;;;;;;;;;;5040654;28;20204;-67
2022/05/26 09:02:02;;;;;;;5.00;1.00;;;;;;;;;;5045955;28;20185;-67
2022/05/26 09:04:28;;;;;;;4.22;1.25;;;;;;;;;;5041828;28;20178;-66
2022/05/26 09:15:15;;;;;;;8.05;0.98;;;;;;;;;;5041105;28;20193;-68
2022/05/26 09:17:41;;;;;;;6.93;1.15;;;;;;;;;;5042138;28;20185;-66
2022/05/26 09:20:31;;;;;;;6.57;1.30;;;;;;;;;;5040628;28;20724;-66
2022/05/26 09:23:14;;;;;;;4.28;0.98;;;;;;;;;;5044851;28;20174;-66
2022/05/26 09:25:49;;;;;;;2.58;0.70;;;;;;;;;;5041961;28;20213;-65
2022/05/26 09:28:29;;;;;;;3.58;0.82;;;;;;;;;;5039622;28;20551;-66
2022/05/26 09:30:55;;;;;;;4.22;0.80;;;;;;;;;;5046243;28;20208;-66
2022/05/26 09:33:29;;;;;;;3.65;0.80;;;;;;;;;;5049887;28;20676;-66
2022/05/26 09:36:14;;;;;;;6.20;0.90;;;;;;;;;;5043108;28;20288;-66
2022/05/26 09:38:39;;;;;;;3.38;1.08;;;;;;;;;;5048252;28;20196;-66
2022/05/26 09:41:07;;;;;;;1.50;0.80;;;;;;;;;;5045250;28;20177;-69
2022/05/26 09:43:33;;;;;;;2.22;0.65;;;;;;;;;;5035624;28;20204;-67
2022/05/26 09:46:07;;;;;;;3.20;0.90;;;;;;;;;;5036783;28;20184;-66
2022/05/26 09:48:36;;;;;;;2.92;0.73;;;;;;;;;;5040318;28;20575;-67
2022/05/26 09:51:21;;;;;;;3.78;0.75;;;;;;;;;;5038647;28;20193;-67
2022/05/26 09:53:48;;;;;;;5.05;0.80;;;;;;;;;;5047983;28;20186;-67
2022/05/26 09:56:38;;;;;;;3.47;0.80;;;;;;;;;;5033045;28;20182;-67
2022/05/26 09:59:24;;;;;;;2.60;0.70;;;;;;;;;;5028907;28;20186;-67
2022/05/26 10:01:52;;;;;;;5.40;0.73;;;;;;;;;;5044356;28;20645;-66
2022/05/26 10:04:48;;;;;;;2.47;0.73;;;;;;;;;;5045013;28;20193;-66
2022/05/26 10:07:21;;;;;;;1.60;0.88;;;;;;;;;;5030151;28;20240;-67
2022/05/26 10:10:10;;;;;;;1.30;0.70;;;;;;;;;;5035499;28;20281;-67
2022/05/26 10:12:52;;;;;;;2.80;0.60;;;;;;;;;;5042191;28;20336;-67
2022/05/26 10:15:56;;;;;;;5.90;0.70;;;;;;;;;;5032932;28;20657;-68
2022/05/26 10:18:39;;;;;;;3.83;0.73;;;;;;;;;;5036131;28;20282;-65
2022/05/26 10:21:35;;;;;;;3.00;0.73;;;;;;;;;;5031758;28;20594;-66
2022/05/26 10:24:06;;;;;;;4.45;0.82;;;;;;;;;;5041222;28;20260;-68
2022/05/26 10:26:33;;;;;;;5.05;0.73;;;;;;;;;;5035980;28;20193;-66
2022/05/26 10:29:14;;;;;;;4.10;0.88;;;;;;;;;;5044074;28;20205;-67
2022/05/26 10:32:05;;;;;;;3.92;1.33;;;;;;;;;;5034724;28;20241;-66
2022/05/26 10:34:54;;;;;;;3.13;0.88;;;;;;;;;;5027028;28;20554;-66
2022/05/26 10:37:26;;;;;;;3.80;0.70;;;;;;;;;;5030127;28;20247;-67
2022/05/26 10:40:23;;;;;;;6.05;0.75;;;;;;;;;;5028700;28;20273;-67
2022/05/26 10:42:55;;;;;;;2.90;0.65;;;;;;;;;;5029287;28;20198;-67
2022/05/26 10:45:36;;;;;;;1.63;0.60;;;;;;;;;;5032042;28;20185;-66
2022/05/26 10:48:23;;;;;;;3.38;0.88;;;;;;;;;;5031761;28;20439;-68
2022/05/26 10:51:05;;;;;;;2.33;0.68;;;;;;;;;;5043188;28;20201;-66
2022/05/26 10:53:58;;;;;;;2.33;0.60;;;;;;;;;;5032067;28;20195;-66
2022/05/26 10:56:31;;;;;;;4.15;0.82;;;;;;;;;;5035755;28;20179;-68
2022/05/26 10:59:08;;;;;;;5.15;1.10;;;;;;;;;;5044594;28;20181;-68
2022/05/26 11:01:49;;;;;;;3.90;0.73;;;;;;;;;;5029744;28;20715;-68
2022/05/26 11:04:34;;;;;;;2.50;0.60;;;;;;;;;;5032629;28;20559;-66
2022/05/26 11:07:05;;;;;;;7.32;1.00;;;;;;;;;;5036355;28;20231;-66
2022/05/26 11:09:39;;;;;;;3.25;0.90;;;;;;;;;;5036680;28;20177;-65
2022/05/26 11:12:10;;;;;;;4.60;0.95;;;;;;;;;;5039579;28;20233;-66
2022/05/26 11:17:44;;;;;;;3.45;0.80;;;;;;;;;;5041144;28;20258;-67
2022/05/26 11:20:15;;;;;;;3.88;1.15;;;;;;;;;;5039257;28;20640;-66
2022/05/26 11:22:45;;;;;;;4.60;0.93;;;;;;;;;;5041907;28;20185;-66
2022/05/26 11:25:15;;;;;;;4.80;0.90;;;;;;;;;;5043751;28;20185;-66
2022/05/26 11:28:03;;;;;;;7.22;1.45;;;;;;;;;;5037996;28;20277;-68
2022/05/26 11:36:45;;;;;;;3.10;0.88;;;;;;;;;;5034057;28;20193;-66
2022/05/26 11:39:21;;;;;;;4.90;1.33;;;;;;;;;;5040493;28;20277;-66
2022/05/26 11:41:51;;;;;;;4.05;1.20;;;;;;;;;;5036728;28;20537;-66
2022/05/26 11:44:30;;;;;;;4.40;1.13;;;;;;;;;;5039352;28;20166;-66
2022/05/26 11:47:11;;;;;;;5.05;1.50;;;;;;;;;;5036304;28;20194;-66
2022/05/26 11:49:43;;;;;;;5.97;1.40;;;;;;;;;;5038240;28;20264;-67
2022/05/26 11:52:26;;;;;;;7.95;1.35;;;;;;;;;;5040318;28;20247;-66
2022/05/26 11:55:01;;;;;;;6.30;1.50;;;;;;;;;;5032634;28;20186;-66
2022/05/26 11:57:33;;;;;;;4.05;1.25;;;;;;;;;;5034543;28;20208;-68
2022/05/26 12:00:20;;;;;;;2.90;1.20;;;;;;;;;;5031255;28;20237;-74
2022/05/26 12:02:50;;;;;;;2.50;0.98;;;;;;;;;;5034956;28;20186;-66
2022/05/26 12:05:28;;;;;;;6.97;1.50;;;;;;;;;;5039994;28;20196;-68
2022/05/26 12:07:56;;;;;;;4.78;1.10;;;;;;;;;;5031029;28;20192;-68
2022/05/26 12:10:24;;;;;;;7.03;1.42;;;;;;;;;;5046242;28;20193;-66
2022/05/26 12:13:36;;;;;;;7.05;1.40;;;;;;;;;;5030911;28;20328;-67
2022/05/26 12:16:10;;;;;;;3.80;1.30;;;;;;;;;;5038859;28;20184;-68
2022/05/26 12:18:47;;;;;;;4.60;1.10;;;;;;;;;;5029424;28;20186;-67
2022/05/26 12:21:34;;;;;;;5.57;1.25;;;;;;;;;;5038582;28;20561;-66
2022/05/26 12:24:35;;;;;;;2.28;0.82;;;;;;;;;;5043386;28;20268;-68
2022/05/26 12:27:01;;;;;;;1.67;0.80;;;;;;;;;;5033593;28;20647;-65
2022/05/26 12:29:59;;;;;;;2.08;0.93;;;;;;;;;;5032321;28;20170;-67
2022/05/26 12:32:28;;;;;;;3.67;0.88;;;;;;;;;;5030820;28;20296;-65
2022/05/26 12:35:18;;;;;;;2.42;0.82;;;;;;;;;;5038044;28;20536;-67
2022/05/26 12:38:02;;;;;;;5.07;1.27;;;;;;;;;;5048336;28;20537;-67
2022/05/26 12:40:49;;;;;;;1.75;0.85;;;;;;;;;;5036257;28;20688;-66
2022/05/26 12:43:59;;;;;;;3.75;0.80;;;;;;;;;;5041897;28;20530;-67
2022/05/26 12:46:47;;;;;;;4.03;0.98;;;;;;;;;;5012467;28;20328;-66
2022/05/26 12:49:31;;;;;;;1.88;0.65;;;;;;;;;;5035458;28;20224;-66
2022/05/26 12:52:27;;;;;;;5.75;1.10;;;;;;;;;;5035701;28;20465;-69
2022/05/26 12:55:05;;;;;;;4.55;0.90;;;;;;;;;;5046220;28;20185;-68
2022/05/26 12:57:31;;;;;;;6.45;1.00;;;;;;;;;;4343532;28;10000555;-67
2022/05/26 13:00:33;;;;;;;4.18;0.80;;;;;;;;;;5035164;28;20182;-66
2022/05/26 13:03:18;;;;;;;2.85;0.75;;;;;;;;;;5029605;28;20343;-68
2022/05/26 13:05:49;;;;;;;5.13;1.00;;;;;;;;;;5035179;28;20209;-68
2022/05/26 13:08:20;;;;;;;3.35;1.00;;;;;;;;;;5034892;28;20545;-66
2022/05/26 13:10:47;;;;;;;5.13;1.00;;;;;;;;;;5044577;28;20206;-68
2022/05/26 13:13:24;;;;;;;3.92;1.10;;;;;;;;;;5028341;28;20238;-68
2022/05/26 13:15:50;;;;;;;5.90;1.00;;;;;;;;;;5027805;28;20190;-68
2022/05/26 13:18:23;;;;;;;4.22;1.08;;;;;;;;;;5034384;28;20266;-67
2022/05/26 13:20:50;;;;;;;4.28;1.20;;;;;;;;;;5047127;28;20633;-67
2022/05/26 13:23:31;;;;;;;3.20;1.10;;;;;;;;;;5034520;28;20189;-66
2022/05/26 13:26:00;;;;;;;6.40;1.50;;;;;;;;;;5038626;28;20193;-67
2022/05/26 13:28:28;;;;;;;3.03;1.08;;;;;;;;;;5033934;28;20181;-66
2022/05/26 13:33:49;;;;;;;5.95;1.13;;;;;;;;;;5040795;28;20205;-67
2022/05/26 13:36:25;;;;;;;5.60;1.20;;;;;;;;;;5026851;28;20211;-67
2022/05/26 13:38:50;;;;;;;4.10;0.95;;;;;;;;;;5039211;28;20193;-68
2022/05/26 13:41:26;;;;;;;4.07;1.02;;;;;;;;;;5031262;28;20536;-67
2022/05/26 13:43:53;;;;;;;3.63;1.10;;;;;;;;;;5031108;28;20626;-68
2022/05/26 13:46:28;;;;;;;4.07;1.00;;;;;;;;;;5036295;28;20559;-67
2022/05/26 13:48:55;;;;;;;6.65;1.05;;;;;;;;;;5029140;28;20189;-65
2022/05/26 13:51:41;;;;;;;6.68;1.33;;;;;;;;;;5025610;28;20218;-67
2022/05/26 13:54:28;;;;;;;5.13;0.80;;;;;;;;;;5033159;28;20540;-67
2022/05/26 13:56:55;;;;;;;3.75;1.15;;;;;;;;;;5032955;28;20185;-67
2022/05/26 13:59:21;;;;;;;6.07;1.23;;;;;;;;;;5037592;28;20681;-67
2022/05/26 14:02:03;;;;;;;4.40;1.08;;;;;;;;;;5030041;28;20505;-68
2022/05/26 14:04:34;;;;;;;3.25;1.05;;;;;;;;;;5033743;28;20186;-66
2022/05/26 14:07:01;;;;;;;4.07;0.85;;;;;;;;;;5027600;28;20520;-67
2022/05/26 14:09:32;;;;;;;5.47;1.10;;;;;;;;;;5028758;28;20523;-66
2022/05/26 14:12:04;;;;;;;4.68;1.05;;;;;;;;;;4989873;28;1025629;-67
2022/05/26 14:14:40;;;;;;;3.05;1.13;;;;;;;;;;5028913;28;20566;-67
2022/05/26 14:17:08;;;;;;;2.65;0.85;;;;;;;;;;5033433;28;20189;-64
2022/05/26 14:19:38;;;;;;;3.20;0.90;;;;;;;;;;5036227;28;20190;-66
2022/05/26 14:22:05;;;;;;;2.53;0.70;;;;;;;;;;5034719;28;20276;-65
2022/05/26 14:24:37;;;;;;;4.70;1.10;;;;;;;;;;5037406;28;20653;-64
2022/05/26 14:27:08;;;;;;;4.65;0.70;;;;;;;;;;5045723;28;20162;-66
2022/05/26 14:29:36;;;;;;;4.07;1.02;;;;;;;;;;5041127;28;20747;-68
2022/05/26 14:32:24;;;;;;;4.43;1.20;;;;;;;;;;5035378;28;20237;-66
2022/05/26 14:34:56;;;;;;;3.75;0.80;;;;;;;;;;5039624;28;20178;-66
2022/05/26 14:37:23;;;;;;;5.45;0.82;;;;;;;;;;5031679;28;20566;-67
2022/05/26 14:39:52;;;;;;;3.80;0.93;;;;;;;;;;5035662;28;20185;-69
2022/05/26 14:42:38;;;;;;;8.15;1.52;;;;;;;;;;5030866;28;20252;-68
2022/05/26 14:45:08;;;;;;;3.13;0.90;;;;;;;;;;5043592;28;20281;-66
2022/05/26 14:47:34;;;;;;;5.50;0.80;;;;;;;;;;5033389;28;20190;-67
2022/05/26 14:49:59;;;;;;;2.85;0.90;;;;;;;;;;5039809;28;20271;-67
2022/05/26 14:52:28;;;;;;;7.03;1.13;;;;;;;;;;5035000;28;20735;-67
2022/05/26 14:57:40;;;;;;;4.43;1.00;;;;;;;;;;5034250;28;20641;-65
2022/05/26 15:00:09;;;;;;;3.78;0.80;;;;;;;;;;5036088;28;20179;-65
2022/05/26 15:02:36;;;;;;;5.30;1.15;;;;;;;;;;5041975;28;20186;-66
2022/05/26 15:05:01;;;;;;;4.15;0.80;;;;;;;;;;5046164;28;20188;-66
2022/05/26 15:07:27;;;;;;;5.68;1.20;;;;;;;;;;5039220;28;20193;-66
2022/05/26 15:09:52;;;;;;;4.22;1.42;;;;;;;;;;5038011;28;20596;-66
2022/05/26 15:12:18;;;;;;;6.63;1.20;;;;;;;;;;5036897;28;20736;-67
2022/05/26 15:14:43;;;;;;;4.03;1.13;;;;;;;;;;5037462;28;20189;-67
2022/05/26 15:17:12;;;;;;;2.13;0.80;;;;;;;;;;5042192;28;20177;-67
2022/05/26 15:19:46;;;;;;;4.47;1.02;;;;;;;;;;5042071;28;20432;-67
2022/05/26 15:22:13;;;;;;;3.58;1.23;;;;;;;;;;5040404;28;20206;-66
2022/05/26 15:24:40;;;;;;;5.80;1.80;;;;;;;;;;5043899;28;20205;-66
2022/05/26 15:27:06;;;;;;;6.57;1.20;;;;;;;;;;5043945;28;20230;-66
2022/05/26 15:29:32;;;;;;;5.60;1.10;;;;;;;;;;5038204;28;20601;-66
2022/05/26 15:31:58;;;;;;;6.40;1.08;;;;;;;;;;5040118;28;20213;-66
2022/05/26 15:34:24;;;;;;;4.53;2.22;;;;;;;;;;5037492;28;20546;-66
2022/05/26 15:36:52;;;;;;;3.72;1.17;;;;;;;;;;5036280;28;20186;-66
2022/05/26 15:39:18;;;;;;;5.20;1.30;;;;;;;;;;5038179;28;20231;-66
2022/05/26 15:41:43;;;;;;;4.55;1.17;;;;;;;;;;5038717;28;20216;-65
2022/05/26 15:44:08;;;;;;;5.43;1.42;;;;;;;;;;5038290;28;20194;-65
2022/05/26 15:46:47;;;;;;;6.45;1.48;;;;;;;;;;5039069;28;20185;-66
2022/05/26 15:49:14;;;;;;;2.65;1.20;;;;;;;;;;5038189;28;20177;-66
2022/05/26 15:51:40;;;;;;;6.22;1.40;;;;;;;;;;5033454;28;20197;-67